This is the latest recevied weather packets stored in our database for station/object KC3UTO. If no packets are shown the sender has not sent any weather packets the latest 10 day(s).
| Time | Temp. | Humidity | Pressure | Rain* | Wind** | Luminosity | Snow |
|---|---|---|---|---|---|---|---|
| 1788548884 | 28.33° C | 63% | 1011.7 hPa | 0 mm | - | 199 W/m² | - |
| 1788548580 | 28.89° C | 62% | 1011.8 hPa | 0 mm | - | 185 W/m² | - |
| 1788548276 | 29.44° C | 61% | 1011.9 hPa | 0 mm | - | 121 W/m² | - |
| 1788547971 | 30° C | 59% | 1011.9 hPa | 0 mm | - | 170 W/m² | - |
| 1788547670 | 30° C | 59% | 1011.9 hPa | 0 mm | - | 190 W/m² | - |
| 1788547366 | 29.44° C | 60% | 1012 hPa | 0 mm | - | 656 W/m² | - |
| 1788547061 | 28.89° C | 61% | 1012 hPa | 0 mm | - | 734 W/m² | - |
| 1788546756 | 28.33° C | 63% | 1012 hPa | 0 mm | - | 203 W/m² | - |
| 1788546452 | 28.33° C | 63% | 1012.1 hPa | 0 mm | - | 258 W/m² | - |
| 1788546163 | 28.33° C | 63% | 1012.1 hPa | 0 mm | - | 222 W/m² | - |
| 1788545842 | 28.33° C | 64% | 1012.2 hPa | 0 mm | - | 240 W/m² | - |
| 1788545542 | 28.33° C | 63% | 1012.1 hPa | 0 mm | - | 177 W/m² | - |
| 1788545237 | 28.33° C | 63% | 1012.4 hPa | 0 mm | - | 233 W/m² | - |
| 1788544933 | 28.33° C | 63% | 1012.3 hPa | 0 mm | - | 238 W/m² | - |
| 1788544631 | 28.33° C | 62% | 1012.4 hPa | 0 mm | - | 148 W/m² | - |
| 1788544331 | 28.33° C | 62% | 1012.3 hPa | 0 mm | - | 146 W/m² | - |
| 1788544031 | 28.33° C | 63% | 1012.3 hPa | 0 mm | - | 171 W/m² | - |
| 1788543727 | 28.89° C | 61% | 1012.2 hPa | 0 mm | - | 164 W/m² | - |
| 1788543422 | 28.89° C | 60% | 1012.1 hPa | 0 mm | - | 216 W/m² | - |
| 1788543117 | 29.44° C | 60% | 1012 hPa | 0 mm | - | 248 W/m² | - |
| 1788542814 | 29.44° C | 60% | 1012 hPa | 0 mm | - | 377 W/m² | - |
| 1788542512 | 29.44° C | 60% | 1012.1 hPa | 0 mm | - | 870 W/m² | - |
| 1788542208 | 29.44° C | 58% | 1011.8 hPa | 0 mm | - | 407 W/m² | - |
| 1788541903 | 29.44° C | 58% | 1012.1 hPa | 0 mm | - | 890 W/m² | - |
| 1788541599 | 29.44° C | 60% | 1012.1 hPa | 0 mm | - | 941 W/m² | - |
* Rain latest hour (hover to see other rain measurements)
** Current wind speed in m/s (hover to see current wind gust speed)